Details From KNEW - Lakefront
To MKJS - Montego Bay Sangster Intl
Flight Number -
Tags Generated
Created
Modified
Stats Distance 958 nm / 1,773 km
Max Altitude 0 ft / 0 m
Waypoints 3
Social Downloads 1
Likes 0
Share VATSIM

Download

Looking for another format? Having issues loading an existing format? Contact us
Advertisement - Login to hide

Notes

Generated

Route

KNEW SIA MKJS

ID Type Via Altitude Latitude Longitude Leg Dist Tot Dist Heading (true) Name
O KNEW APT - 0 ft / 0 m 30.03705˚ -90.03062˚ - 0 nm - Lakefront
SIA VOR - 0 ft / 0 m 18.50106˚ -77.92411˚ 957 nm 957 nm 134° / 139° SANGSTER VOR-DME
O MKJS APT - 0 ft / 0 m 18.49873˚ -77.92482˚ 0 nm 957 nm 196° / 196° -

Altitude Profile

Advertisement - Login to hide

Weather


0- 5 10 15 20 25 30 35+ Temperature / ° C

Clouds and Precipitation
Forecast for 2017-12-14 06:00 UTC. Updated 2 hours ago

Ground ~20,000 ft ~40,000 ft Winds

KNEW

Details ICAO KNEW
Name Lakefront
Region United States
Timezone America/Chicago (UTC-6.0)
Stats Elevation 7 ft / 2 m (AMSL)
Location 30.041857° -90.027690°
Runways 3
Magnetic Variation 0.887° W

METAR

KNEW 140353Z AUTO 21008KT 10SM CLR 11/06 A3001 RMK AO2 SLP157 T01110061

Decode

TAF

KNEW 132340Z 1400/1424 20008KT P6SM SKC FM140700 25007KT P6SM SCT250

Decode

Departure Runways

ID Width Length Bearing (true) Bearing (mag) Surface Threshold Offset Overrun Length
09 75 ft / 23 m 3,108 ft / 947 m 89.20° 90.09° Asphalt 0 ft / 0 m 59 ft / 18 m
18L 75 ft / 23 m 3,710 ft / 1,131 m 179.26° 180.15° Asphalt 0 ft / 0 m 0 ft / 0 m
18R 150 ft / 46 m 6,904 ft / 2,104 m 179.27° 180.16° Asphalt 240 ft / 73 m 0 ft / 0 m
27 75 ft / 23 m 3,108 ft / 947 m 269.20° 270.09° Asphalt 0 ft / 0 m 49 ft / 15 m
36L 150 ft / 46 m 6,904 ft / 2,104 m 359.27° 0.16° Asphalt 820 ft / 250 m 0 ft / 0 m
36R 75 ft / 23 m 3,710 ft / 1,131 m 359.26° 0.15° Asphalt 0 ft / 0 m 0 ft / 0 m

MKJS

Details ICAO MKJS (MBJ)
Name Sangster Intl
Region Jamaica
Timezone America/Jamaica (UTC-5.0)
Stats Elevation 6 ft / 2 m (AMSL)
Location 18.503549° -77.913698°
Runways 1
Magnetic Variation 6.955° W

METAR

MKJS 140400Z 12005KT 9999 SCT020 BKN030 24/22 Q1015

Decode

TAF

TAF MKJS 132315Z 1400/1424 01010KT 9999 SCT024 BKN035 BECMG 1412/1414 07012KT PROB40 TEMPO 1415/1421 SHRA SHRA BKN024 BKN032 BECMG 1420/1422 FEW022

Decode

Destination Runways

ID Width Length Bearing (true) Bearing (mag) Surface Threshold Offset Overrun Length
07 161 ft / 49 m 8,495 ft / 2,589 m 65.37° 72.33° Asphalt 220 ft / 67 m 312 ft / 95 m
25 161 ft / 49 m 8,495 ft / 2,589 m 245.37° 252.33° Asphalt 577 ft / 176 m 200 ft / 61 m

Approach Navaids

Runway Type Ident Frequency Range Bearing (true) Bearing (mag) Slope Elevation
07 Localiser ISIA 109.50 MHz 18 nm / 33 km 65.41° 72.36° - 4 ft / 1 m (AMSL)
07 Glidescope ISIA 109.50 MHz 10 nm / 19 km 65.37° 72.33° 3.00° 4 ft / 1 m (AMSL)

Popular Alternatives